Time;durP1;ratioP1;P1;durP2;ratioP2;P2;SDS_P1;SDS_P2;PMS_P1;PMS_P2;Temp;Humidity;BMP_temperature;BMP_pressure;BME280_temperature;BME280_humidity;BME280_pressure;Samples;Min_cycle;Max_cycle;Signal;HPM_P1;HPM_P2
2022/09/11 00:01:46;;;;;;;;;;;17.60;59.60;;;13.31;86.58;95846.81;4973260;28;19910;-46
2022/09/11 00:04:15;;;;;;;;;;;17.60;59.60;;;13.24;87.15;95848.16;4973408;28;20376;-45
2022/09/11 00:06:44;;;;;;;;;;;17.60;59.60;;;13.18;87.32;95840.16;4974041;28;19909;-45
2022/09/11 00:09:13;;;;;;;;;;;17.60;59.60;;;13.14;88.20;95835.63;4974759;28;19914;-44
2022/09/11 00:11:44;;;;;;;;;;;17.50;59.60;;;13.08;88.55;95840.19;4973909;28;19928;-45
2022/09/11 00:14:19;;;;;;;;;;;17.50;59.60;;;13.02;89.00;95835.94;4972852;28;19936;-44
2022/09/11 00:16:46;;;;;;;;;;;17.40;59.70;;;12.99;88.30;95841.03;4974775;28;19909;-48
2022/09/11 00:19:18;;;;;;;;;;;17.40;59.80;;;12.95;88.53;95840.78;4973398;28;19921;-45
2022/09/11 00:21:49;;;;;;;;;;;17.30;59.80;;;12.93;88.26;95840.25;4973873;28;19913;-45
2022/09/11 00:24:15;;;;;;;;;;;17.30;59.80;;;12.86;88.89;95837.06;4943433;28;19914;-45
2022/09/11 00:26:46;;;;;;;;;;;17.20;59.80;;;12.83;88.73;95840.28;4939424;28;20269;-49
2022/09/11 00:29:15;;;;;;;;;;;17.20;59.90;;;12.78;89.04;95838.41;4974121;28;19910;-45
2022/09/11 00:31:48;;;;;;;;;;;17.10;59.90;;;12.75;89.95;95836.28;4971238;28;20007;-45
2022/09/11 00:34:17;;;;;;;;;;;17.10;60.00;;;12.72;90.25;95837.66;4972924;28;19910;-45
2022/09/11 00:36:47;;;;;;;;;;;17.00;60.00;;;12.69;90.60;95835.53;4968974;28;19918;-46
2022/09/11 00:39:13;;;;;;;;;;;17.00;60.10;;;12.67;90.97;95834.19;4937095;28;20017;-47
2022/09/11 00:41:46;;;;;;;;;;;17.00;60.30;;;12.67;91.27;95848.34;4940827;28;19910;-45
2022/09/11 00:44:16;;;;;;;;;;;17.00;60.30;;;12.67;91.02;95836.88;4950439;28;19920;-52
2022/09/11 00:46:52;;;;;;;;;;;17.00;60.40;;;12.66;91.17;95827.22;4954908;28;19918;-51
2022/09/11 00:49:23;;;;;;;;;;;17.00;61.20;;;12.65;91.19;95828.31;4957676;28;19909;-52
2022/09/11 00:51:56;;;;;;;;;;;17.00;60.60;;;12.64;90.54;95830.19;4952951;28;19910;-51
2022/09/11 00:54:34;;;;;;;;;;;17.00;60.60;;;12.69;89.61;95824.00;4936541;28;19949;-48
2022/09/11 00:57:17;;;;;;;;;;;17.00;60.90;;;12.74;88.88;95816.78;4950305;28;20288;-49
2022/09/11 00:59:51;;;;;;;;;;;17.00;60.90;;;12.79;88.55;95821.34;4936927;28;19914;-50
2022/09/11 01:02:21;;;;;;;;;;;17.00;60.90;;;12.85;88.20;95817.56;4963330;28;19916;-47
2022/09/11 01:04:47;;;;;;;;;;;17.10;61.10;;;12.91;88.28;95813.81;4936800;28;19941;-48
2022/09/11 01:07:24;;;;;;;;;;;17.10;61.10;;;12.94;88.13;95818.59;4960374;28;19976;-49
2022/09/11 01:09:52;;;;;;;;;;;17.10;61.00;;;12.95;88.32;95812.19;4971874;28;19910;-48
2022/09/11 01:12:45;;;;;;;;;;;17.10;60.90;;;12.95;88.33;95822.88;4955323;28;20365;-46
2022/09/11 01:15:46;;;;;;;;;;;17.10;60.90;;;12.90;88.30;95820.22;4950090;28;19960;-50
2022/09/11 01:18:32;;;;;;;;;;;17.10;60.90;;;12.84;88.50;95825.84;4952524;28;19918;-51
2022/09/11 01:21:51;;;;;;;;;;;17.00;60.80;;;12.76;89.42;95816.53;4952478;28;20005;-52
2022/09/11 01:25:09;;;;;;;;;;;17.00;60.80;;;12.67;90.59;95813.59;4950099;28;19910;-51
2022/09/11 01:27:50;;;;;;;;;;;17.00;60.90;;;12.63;90.30;95817.91;4971982;28;19914;-50
2022/09/11 01:30:27;;;;;;;;;;;16.90;60.90;;;12.57;91.14;95812.84;4972079;28;20005;-47
2022/09/11 01:33:29;;;;;;;;;;;16.90;61.00;;;12.57;91.67;95818.19;4951715;28;19914;-48
2022/09/11 01:36:19;;;;;;;;;;;16.90;61.10;;;12.59;91.36;95816.03;4936416;28;19937;-47
2022/09/11 01:39:03;;;;;;;;;;;16.90;61.40;;;12.65;91.25;95818.41;4962511;28;19996;-48
2022/09/11 01:41:59;;;;;;;;;;;16.90;61.50;;;12.73;90.75;95809.06;4951615;28;20058;-50
2022/09/11 01:44:37;;;;;;;;;;;16.90;61.70;;;12.77;90.53;95817.31;4953557;28;20069;-48
2022/09/11 01:47:10;;;;;;;;;;;16.90;61.60;;;12.75;90.75;95817.59;4936415;28;19917;-46
2022/09/11 01:49:47;;;;;;;;;;;16.90;61.60;;;12.71;91.33;95811.19;4951455;28;20009;-47
2022/09/11 01:52:29;;;;;;;;;;;16.90;61.50;;;12.69;91.57;95808.81;4951738;28;20431;-46
2022/09/11 01:55:22;;;;;;;;;;;16.90;61.50;;;12.65;92.06;95817.63;4940858;28;20354;-50
2022/09/11 01:58:05;;;;;;;;;;;16.90;61.40;;;12.66;92.09;95811.19;4936315;28;19921;-54
2022/09/11 02:00:46;;;;;;;;;;;17.00;61.60;;;12.65;91.77;95812.28;4964688;28;19917;-52
2022/09/11 02:04:06;;;;;;;;;;;16.90;61.50;;;12.63;92.06;95812.56;4960411;28;19957;-49
2022/09/11 02:07:14;;;;;;;;;;;17.00;61.60;;;12.58;93.14;95807.22;4961436;28;20384;-51
2022/09/11 02:09:58;;;;;;;;;;;16.90;61.50;;;12.63;92.72;95817.91;4962670;28;20316;-51
2022/09/11 02:12:33;;;;;;;;;;;16.90;61.60;;;12.62;92.75;95808.25;4934457;28;19918;-52
2022/09/11 02:14:59;;;;;;;;;;;16.90;61.70;;;12.64;92.80;95808.81;4950348;28;19914;-53
2022/09/11 02:17:51;;;;;;;;;;;16.90;61.80;;;12.62;92.78;95816.28;4952503;28;20004;-50
2022/09/11 02:20:24;;;;;;;;;;;17.00;61.80;;;12.65;92.69;95818.41;4935051;28;19916;-50
2022/09/11 02:22:52;;;;;;;;;;;17.00;61.80;;;12.66;92.43;95816.53;4935344;28;19949;-49
2022/09/11 02:25:17;;;;;;;;;;;17.00;61.80;;;12.65;92.70;95812.28;4940887;28;20377;-51
2022/09/11 02:27:46;;;;;;;;;;;17.00;61.80;;;12.64;92.49;95811.47;4970300;28;19924;-49
2022/09/11 02:30:13;;;;;;;;;;;17.00;61.80;;;12.65;92.64;95813.06;4953354;28;19910;-52
2022/09/11 02:32:46;;;;;;;;;;;17.00;61.80;;;12.64;92.92;95819.50;4952401;28;19957;-54
2022/09/11 02:35:17;;;;;;;;;;;17.10;62.60;;;12.67;92.86;95813.59;4952090;28;19910;-54
2022/09/11 02:38:17;;;;;;;;;;;17.00;61.80;;;12.67;94.30;95816.28;4941980;28;19922;-52
2022/09/11 02:41:17;;;;;;;;;;;17.10;61.90;;;12.72;94.28;95818.13;4942956;28;20017;-53
2022/09/11 02:43:58;;;;;;;;;;;17.10;62.10;;;12.77;93.99;95820.00;4949595;28;19921;-50
2022/09/11 02:47:29;;;;;;;;;;;17.10;62.10;;;12.81;93.68;95824.50;4951961;28;19964;-53
2022/09/11 02:50:29;;;;;;;;;;;17.10;62.10;;;12.83;93.54;95825.06;4963489;28;20005;-52
2022/09/11 02:53:45;;;;;;;;;;;17.10;62.20;;;12.87;93.38;95822.63;4971747;28;19909;-53
2022/09/11 02:56:26;;;;;;;;;;;17.20;62.30;;;12.91;92.94;95834.38;4911579;29;19929;-54
2022/09/11 02:59:20;;;;;;;;;;;17.20;62.30;;;12.91;92.87;95827.16;4951312;29;20313;-48
2022/09/11 03:01:50;;;;;;;;;;;17.30;62.30;;;12.92;92.90;95827.97;4961205;28;19916;-47
2022/09/11 03:04:17;;;;;;;;;;;17.30;62.30;;;12.94;93.00;95823.13;4952954;28;19914;-48
2022/09/11 03:06:44;;;;;;;;;;;17.30;62.30;;;12.97;93.04;95822.59;4955886;28;20083;-50
2022/09/11 03:09:17;;;;;;;;;;;17.30;62.30;;;12.94;92.97;95818.59;4970432;28;19914;-53
2022/09/11 03:11:44;;;;;;;;;;;17.30;62.20;;;12.98;92.86;95820.72;4955253;28;19920;-52
2022/09/11 03:14:16;;;;;;;;;;;17.30;62.20;;;12.96;92.26;95827.13;4968816;28;19910;-50
2022/09/11 03:16:42;;;;;;;;;;;17.30;62.20;;;13.00;92.47;95821.25;4975598;28;19916;-51
2022/09/11 03:19:08;;;;;;;;;;;17.40;62.30;;;13.03;92.36;95828.72;4974484;28;19941;-50
2022/09/11 03:21:38;;;;;;;;;;;17.40;62.30;;;13.03;92.45;95821.50;4975428;28;20044;-49
2022/09/11 03:24:08;;;;;;;;;;;17.40;62.30;;;13.03;92.63;95821.50;4957660;28;20354;-50
2022/09/11 03:26:37;;;;;;;;;;;17.40;62.30;;;13.07;92.50;95817.22;4954893;28;19910;-46
2022/09/11 03:29:07;;;;;;;;;;;17.40;62.30;;;13.08;92.70;95810.78;4963037;28;26952;-50
2022/09/11 03:31:33;;;;;;;;;;;17.40;62.30;;;13.10;92.55;95814.00;4970687;28;20005;-49
2022/09/11 03:34:06;;;;;;;;;;;17.40;62.30;;;13.08;92.54;95812.66;4954122;28;19992;-50
2022/09/11 03:36:33;;;;;;;;;;;17.40;62.30;;;13.10;92.34;95815.84;4955714;28;19968;-53
2022/09/11 03:39:02;;;;;;;;;;;17.40;62.40;;;13.09;92.55;95807.03;4964797;28;19914;-54
2022/09/11 03:41:40;;;;;;;;;;;17.40;62.40;;;13.11;92.75;95814.78;4954462;28;20393;-54
2022/09/11 03:44:07;;;;;;;;;;;17.40;62.50;;;13.13;92.72;95812.63;4966158;28;20376;-51
2022/09/11 03:46:33;;;;;;;;;;;17.30;62.50;;;13.12;92.56;95808.34;4975025;28;20303;-53
2022/09/11 03:49:00;;;;;;;;;;;17.30;62.40;;;13.11;92.25;95812.91;4974150;28;19909;-50
2022/09/11 03:51:30;;;;;;;;;;;17.40;62.50;;;13.09;92.17;95804.34;4973512;28;20279;-53
2022/09/11 03:54:01;;;;;;;;;;;17.30;62.50;;;13.07;91.72;95811.06;4974371;28;20408;-49
2022/09/11 03:56:32;;;;;;;;;;;17.30;62.50;;;13.05;91.64;95815.88;4963963;28;20002;-54
2022/09/11 03:59:04;;;;;;;;;;;17.30;62.50;;;13.03;91.99;95810.78;4953950;28;20021;-48
2022/09/11 04:01:30;;;;;;;;;;;17.30;62.60;;;13.02;91.86;95814.56;4938143;28;19973;-50
2022/09/11 04:03:59;;;;;;;;;;;17.30;62.70;;;13.02;91.92;95811.09;4950743;28;19914;-52
2022/09/11 04:06:25;;;;;;;;;;;17.30;62.70;;;13.01;91.99;95806.81;4973323;28;19910;-50
2022/09/11 04:09:00;;;;;;;;;;;17.30;62.80;;;13.02;91.79;95803.84;4973961;28;19960;-49
2022/09/11 04:11:26;;;;;;;;;;;17.30;62.90;;;13.02;91.81;95800.38;4974133;28;19916;-49
2022/09/11 04:13:54;;;;;;;;;;;17.20;62.80;;;13.04;91.81;95804.41;4936284;28;19910;-48
2022/09/11 04:16:34;;;;;;;;;;;17.20;62.80;;;13.03;91.58;95805.44;4944636;28;20361;-46
2022/09/11 04:19:08;;;;;;;;;;;17.20;62.80;;;12.98;92.09;95810.84;4948364;28;19921;-48
2022/09/11 04:21:34;;;;;;;;;;;17.20;62.80;;;12.96;92.00;95808.41;4968114;28;19916;-46
2022/09/11 04:24:00;;;;;;;;;;;17.20;62.90;;;12.92;91.73;95803.91;4959655;28;19910;-49
2022/09/11 04:26:46;;;;;;;;;;;17.20;62.90;;;12.86;91.62;95795.09;4973798;28;19964;-48
2022/09/11 04:29:16;;;;;;;;;;;17.10;62.70;;;12.82;92.08;95802.06;4973298;28;19933;-49
2022/09/11 04:31:43;;;;;;;;;;;17.10;62.70;;;12.77;92.46;95798.63;4964459;28;20012;-48
2022/09/11 04:34:10;;;;;;;;;;;17.10;62.70;;;12.72;92.29;95802.91;4953029;28;19917;-53
2022/09/11 04:36:36;;;;;;;;;;;17.10;62.70;;;12.69;92.99;95800.78;4937278;28;20000;-48
2022/09/11 04:39:08;;;;;;;;;;;17.00;62.70;;;12.64;92.41;95806.13;4963646;28;20557;-54
2022/09/11 04:41:34;;;;;;;;;;;17.00;62.80;;;12.58;92.31;95814.44;4953288;28;19910;-53
2022/09/11 04:44:01;;;;;;;;;;;17.00;62.90;;;12.55;92.41;95806.97;4953949;28;19917;-53
2022/09/11 04:46:26;;;;;;;;;;;16.90;62.90;;;12.49;92.57;95814.19;4953286;28;19917;-53
2022/09/11 04:49:07;;;;;;;;;;;16.80;62.80;;;12.43;93.27;95810.72;4952369;28;19918;-50
2022/09/11 04:51:38;;;;;;;;;;;16.80;62.90;;;12.39;93.92;95825.69;4960188;28;20352;-49
2022/09/11 04:54:20;;;;;;;;;;;16.80;62.90;;;12.36;94.57;95817.41;4937305;28;20400;-54
2022/09/11 04:56:51;;;;;;;;;;;16.70;62.90;;;12.33;94.60;95818.75;4962721;28;19910;-52
2022/09/11 04:59:23;;;;;;;;;;;16.70;63.00;;;12.27;94.71;95823.28;4955976;28;20020;-50
2022/09/11 05:01:58;;;;;;;;;;;16.70;63.10;;;12.23;95.64;95824.13;4965185;28;19917;-50
2022/09/11 05:04:33;;;;;;;;;;;16.60;63.10;;;12.18;95.56;95821.44;4973041;28;20327;-53
2022/09/11 05:07:02;;;;;;;;;;;16.60;63.20;;;12.17;95.86;95823.31;4972822;28;19937;-51
2022/09/11 05:09:27;;;;;;;;;;;16.50;63.30;;;12.14;96.26;95823.06;4973228;28;20368;-49
2022/09/11 05:11:53;;;;;;;;;;;16.50;63.40;;;12.13;97.02;95818.78;4973267;28;19916;-50
2022/09/11 05:14:19;;;;;;;;;;;16.50;63.50;;;12.14;97.66;95823.06;4963589;28;19971;-49
2022/09/11 05:16:45;;;;;;;;;;;16.50;63.50;;;12.19;97.60;95825.69;4967084;28;19916;-48
2022/09/11 05:19:10;;;;;;;;;;;16.50;63.60;;;12.20;97.92;95825.44;4969396;28;19918;-54
2022/09/11 05:21:39;;;;;;;;;;;16.50;63.80;;;12.25;97.61;95825.44;4962707;28;19985;-52
2022/09/11 05:24:04;;;;;;;;;;;16.60;63.90;;;12.30;97.41;95823.84;4971238;28;20004;-52
2022/09/11 05:26:35;;;;;;;;;;;16.60;63.80;;;12.31;97.96;95828.91;4955686;28;20444;-51
2022/09/11 05:29:06;;;;;;;;;;;16.70;63.90;;;12.36;98.02;95828.09;4953720;28;19910;-48
2022/09/11 05:31:32;;;;;;;;;;;16.70;63.90;;;12.41;97.96;95834.25;4929902;28;20108;-50
2022/09/11 05:34:02;;;;;;;;;;;16.70;63.90;;;12.47;97.64;95835.00;4963960;28;19914;-52
2022/09/11 05:36:30;;;;;;;;;;;16.80;63.90;;;12.49;97.65;95836.34;4948672;28;20359;-47
2022/09/11 05:38:58;;;;;;;;;;;16.90;63.90;;;12.56;97.41;95848.63;4951906;28;19918;-51
2022/09/11 05:41:27;;;;;;;;;;;16.90;63.80;;;12.58;97.21;95844.63;4955071;28;19940;-50
2022/09/11 05:43:53;;;;;;;;;;;17.00;63.90;;;12.62;96.91;95856.38;4956994;28;20364;-49
2022/09/11 05:46:20;;;;;;;;;;;17.00;63.80;;;12.67;96.66;95855.56;4970427;28;20369;-54
2022/09/11 05:48:49;;;;;;;;;;;17.10;63.80;;;12.70;96.71;95858.50;4964379;28;19909;-49
2022/09/11 05:51:20;;;;;;;;;;;17.20;63.80;;;12.74;96.61;95861.44;4956076;28;20389;-46
2022/09/11 05:53:57;;;;;;;;;;;17.30;63.80;;;12.80;96.47;95863.03;4965351;28;19943;-49
2022/09/11 05:56:24;;;;;;;;;;;17.40;63.70;;;12.84;96.61;95877.44;4934986;28;19992;-53
2022/09/11 05:59:01;;;;;;;;;;;17.40;63.60;;;12.90;96.73;95880.91;4953261;28;20013;-51
2022/09/11 06:01:28;;;;;;;;;;;17.50;63.60;;;12.98;96.73;95899.06;4952600;28;19922;-54
2022/09/11 06:03:54;;;;;;;;;;;17.50;63.60;;;13.02;96.05;95892.09;4951506;28;19917;-52
2022/09/11 06:06:22;;;;;;;;;;;17.60;63.60;;;13.10;95.89;95894.22;4936003;28;20345;-52
2022/09/11 06:08:49;;;;;;;;;;;17.70;63.50;;;13.17;95.75;95897.41;4970207;28;19917;-54
2022/09/11 06:11:17;;;;;;;;;;;17.80;63.60;;;13.23;94.55;95900.06;4971444;28;19916;-52
2022/09/11 06:13:46;;;;;;;;;;;17.90;63.50;;;13.28;94.46;95905.41;4953781;28;19916;-51
2022/09/11 06:16:19;;;;;;;;;;;17.90;63.30;;;13.33;94.40;95900.06;4955244;28;20010;-54
2022/09/11 06:18:48;;;;;;;;;;;18.00;63.30;;;13.38;94.16;95908.88;4952791;28;20044;-50
2022/09/11 06:21:18;;;;;;;;;;;18.00;63.10;;;13.46;94.35;95910.16;4929830;28;19910;-54
2022/09/11 06:23:43;;;;;;;;;;;18.10;63.20;;;13.51;93.96;95915.50;4955336;28;19910;-54
2022/09/11 06:26:20;;;;;;;;;;;18.20;63.10;;;13.59;94.08;95919.47;4963387;28;19932;-53
2022/09/11 06:28:46;;;;;;;;;;;18.20;63.00;;;13.65;93.65;95921.03;4971075;28;20324;-45
2022/09/11 06:31:17;;;;;;;;;;;18.30;63.00;;;13.70;93.40;95922.91;4920410;28;19913;-52
2022/09/11 06:33:43;;;;;;;;;;;18.40;63.00;;;13.76;92.93;95919.94;4955282;28;19914;-52
2022/09/11 06:36:25;;;;;;;;;;;18.50;62.90;;;13.83;92.58;95923.09;4949589;28;19968;-51
2022/09/11 06:38:57;;;;;;;;;;;18.60;62.80;;;13.87;91.87;95916.09;4929103;28;19914;-51
2022/09/11 06:41:25;;;;;;;;;;;18.70;62.70;;;13.89;91.71;95921.97;4966317;28;19914;-47
2022/09/11 06:43:52;;;;;;;;;;;18.80;62.60;;;13.95;91.28;95921.97;4952869;28;19964;-50
2022/09/11 06:46:21;;;;;;;;;;;18.80;62.40;;;14.05;91.14;95914.66;4966221;28;20365;-54
2022/09/11 06:48:49;;;;;;;;;;;19.00;62.40;;;14.16;90.52;95912.69;4942642;28;19909;-50
2022/09/11 06:51:19;;;;;;;;;;;19.00;62.20;;;14.25;89.67;95912.91;4925894;28;19956;-52
2022/09/11 06:53:46;;;;;;;;;;;19.20;62.10;;;14.37;89.52;95902.63;4966485;28;19918;-53
2022/09/11 06:56:16;;;;;;;;;;;19.30;62.00;;;14.52;88.52;95901.75;4950476;29;20274;-55
2022/09/11 06:58:45;;;;;;;;;;;19.50;62.60;;;14.65;87.79;95894.91;4956207;28;19954;-54
2022/09/11 07:01:14;;;;;;;;;;;19.60;61.60;;;14.80;87.54;95900.13;4947369;28;20321;-54
2022/09/11 07:03:49;;;;;;;;;;;19.80;61.50;;;14.96;87.23;95898.09;4936374;29;20369;-48
2022/09/11 07:06:22;;;;;;;;;;;19.90;61.20;;;15.05;84.08;95899.09;4954041;28;20265;-49
2022/09/11 07:08:59;;;;;;;;;;;20.20;61.10;;;15.22;83.28;95907.47;4935087;29;20324;-50
2022/09/11 07:11:33;;;;;;;;;;;20.30;60.80;;;15.40;83.49;95905.91;4966738;28;20384;-54
2022/09/11 07:14:05;;;;;;;;;;;20.50;60.60;;;15.54;82.97;95903.31;4944972;29;19921;-55
2022/09/11 07:16:32;;;;;;;;;;;20.70;60.40;;;15.72;82.24;95896.41;4967333;28;19940;-49
2022/09/11 07:18:58;;;;;;;;;;;20.80;60.20;;;15.86;80.96;95897.31;4951183;29;20407;-48
2022/09/11 07:21:26;;;;;;;;;;;21.00;60.00;;;16.04;80.36;95905.63;4967063;28;19910;-51
2022/09/11 07:24:18;;;;;;;;;;;21.10;59.80;;;16.08;79.32;95899.41;4966689;28;20073;-49
2022/09/11 07:26:44;;;;;;;;;;;21.30;59.60;;;16.08;79.30;95904.00;4901658;28;19944;-55
2022/09/11 07:29:11;;;;;;;;;;;21.40;59.40;;;16.18;78.37;95903.81;4956696;28;19910;-55
2022/09/11 07:31:38;;;;;;;;;;;21.40;59.20;;;16.21;77.27;95908.63;4959536;28;19972;-55
2022/09/11 07:34:04;;;;;;;;;;;21.50;59.00;;;16.14;77.70;95910.88;4986170;28;19956;-54
2022/09/11 07:36:32;;;;;;;;;;;21.60;58.80;;;16.29;78.29;95916.00;4971306;28;20284;-50
2022/09/11 07:38:59;;;;;;;;;;;21.60;58.70;;;16.45;78.23;95916.56;4961580;28;19914;-55
2022/09/11 07:41:30;;;;;;;;;;;21.70;58.70;;;16.31;77.60;95913.81;4952728;28;19910;-55
2022/09/11 07:43:59;;;;;;;;;;;21.70;58.50;;;16.47;77.18;95911.69;4977892;28;20008;-54
2022/09/11 07:46:26;;;;;;;;;;;21.80;58.30;;;16.64;77.43;95919.22;4971535;28;19917;-54
2022/09/11 07:48:53;;;;;;;;;;;21.90;58.30;;;16.80;76.42;95917.13;4962483;28;19972;-51
2022/09/11 07:51:19;;;;;;;;;;;22.00;58.30;;;17.07;74.33;95922.53;4987761;28;19909;-54
2022/09/11 07:53:50;;;;;;;;;;;22.20;58.10;;;17.37;73.67;95917.66;5001012;23;20376;-49
2022/09/11 07:56:23;;;;;;;;;;;22.50;57.90;;;17.75;71.02;95918.22;5005491;28;19923;-49
2022/09/11 07:58:51;;;;;;;;;;;23.00;57.70;;;17.94;69.08;95922.72;5007854;28;19913;-45
2022/09/11 08:01:26;;;;;;;;;;;23.50;57.10;;;18.14;69.12;95916.84;5013218;28;20382;-45
2022/09/11 08:03:58;;;;;;;;;;;23.90;56.80;;;18.33;66.29;95922.09;5026940;28;19923;-45
2022/09/11 08:06:29;;;;;;;;;;;24.20;56.30;;;18.68;65.87;95917.75;4994243;28;20371;-46
2022/09/11 08:09:00;;;;;;;;;;;24.60;55.80;;;18.98;65.17;95922.72;4994910;28;20449;-45
2022/09/11 08:11:28;;;;;;;;;;;25.00;55.30;;;19.30;63.75;95921.56;5013773;28;19909;-45
2022/09/11 08:13:55;;;;;;;;;;;25.50;54.90;;;19.75;60.97;95921.44;4983672;28;20150;-45
2022/09/11 08:16:26;;;;;;;;;;;25.90;54.50;;;19.90;59.36;95925.59;4981857;28;20352;-45
2022/09/11 08:18:53;;;;;;;;;;;26.10;54.20;;;19.93;59.57;95917.66;5010074;28;20020;-45
2022/09/11 08:21:23;;;;;;;;;;;26.30;53.90;;;19.84;61.51;95933.06;4991255;28;20359;-45
2022/09/11 08:23:49;;;;;;;;;;;26.20;53.60;;;19.96;60.66;95925.16;5009626;28;20382;-45
2022/09/11 08:26:25;;;;;;;;;;;26.00;53.40;;;19.80;59.43;95930.19;4996684;28;19913;-50
2022/09/11 08:28:54;;;;;;;;;;;26.00;53.00;;;19.82;60.12;95927.19;4977244;28;19910;-45
2022/09/11 08:31:25;;;;;;;;;;;26.20;53.40;;;19.80;59.68;95921.28;4982764;28;20028;-45
2022/09/11 08:33:55;;;;;;;;;;;26.60;52.50;;;20.14;58.33;95925.16;4995948;28;19913;-50
2022/09/11 08:36:22;;;;;;;;;;;27.00;52.20;;;20.55;59.07;95927.41;4995326;28;20320;-48
2022/09/11 08:38:48;;;;;;;;;;;27.30;51.90;;;20.95;56.03;95927.19;4997629;28;19920;-45
2022/09/11 08:41:40;;;;;;;;;;;27.80;51.60;;;21.39;56.59;95927.88;5002336;28;19917;-45
2022/09/11 08:44:08;;;;;;;;;;;28.20;51.20;;;21.65;54.08;95925.03;5007754;28;19917;-48
2022/09/11 08:46:47;;;;;;;;;;;28.50;50.80;;;21.71;54.52;95927.22;5012701;28;19909;-45
2022/09/11 08:49:42;;;;;;;;;;;28.50;50.70;;;21.74;54.59;95933.91;4978575;28;19955;-47
2022/09/11 08:52:15;;;;;;;;;;;28.50;50.40;;;21.89;52.65;95930.63;4976838;28;19913;-45
2022/09/11 08:54:44;;;;;;;;;;;28.60;50.30;;;22.10;54.18;95922.53;4996173;28;19921;-45
2022/09/11 08:57:18;;;;;;;;;;;28.70;50.00;;;22.66;52.42;95924.16;4976464;28;19960;-46
2022/09/11 09:00:18;;;;;;;;;;;29.10;49.70;;;22.72;50.23;95928.25;4976254;28;19914;-45
2022/09/11 09:03:29;;;;;;;;;;;29.50;49.40;;;22.85;52.23;95929.91;5008216;28;19917;-45
2022/09/11 09:06:31;;;;;;;;;;;29.50;49.10;;;23.11;50.23;95926.16;5012649;28;19909;-45
2022/09/11 09:09:21;;;;;;;;;;;29.70;49.00;;;23.29;46.60;95933.78;4994188;28;19952;-45
2022/09/11 09:12:09;;;;;;;;;;;30.20;48.50;;;23.51;50.02;95938.00;4993264;28;19917;-48
2022/09/11 09:15:05;;;;;;;;;;;30.70;47.80;;;23.82;48.01;95933.94;4992166;28;19913;-45
2022/09/11 09:17:51;;;;;;;;;;;31.10;47.40;;;23.82;45.40;95935.84;4991435;28;19917;-45
2022/09/11 09:20:57;;;;;;;;;;;31.50;46.70;;;24.18;45.91;95938.53;4988595;28;19920;-46
2022/09/11 09:23:34;;;;;;;;;;;31.80;46.30;;;24.55;47.65;95927.59;4990880;28;19913;-45
2022/09/11 09:26:00;;;;;;;;;;;32.10;46.00;;;24.88;45.23;95921.91;4977759;28;19992;-43
2022/09/11 09:28:37;;;;;;;;;;;32.40;45.70;;;25.21;43.75;95926.25;4997033;28;19939;-43
2022/09/11 09:31:19;;;;;;;;;;;32.70;45.40;;;25.41;45.48;95924.41;4973025;28;19916;-46
2022/09/11 09:34:03;;;;;;;;;;;32.90;45.00;;;25.64;42.22;95921.09;4995863;28;20268;-48
2022/09/11 09:36:30;;;;;;;;;;;33.10;44.80;;;25.80;42.30;95910.94;5004415;28;19959;-43
2022/09/11 09:38:58;;;;;;;;;;;33.30;44.30;;;25.70;43.18;95908.75;4993801;28;20188;-44
2022/09/11 09:42:01;;;;;;;;;;;33.50;44.00;;;25.56;41.84;95904.53;5013858;28;20433;-43
2022/09/11 09:44:48;;;;;;;;;;;33.40;43.70;;;25.58;40.09;95909.66;5005255;28;20387;-43
2022/09/11 09:47:14;;;;;;;;;;;33.50;43.30;;;25.61;40.36;95923.38;5012299;28;19908;-43
2022/09/11 09:49:42;;;;;;;;;;;33.40;42.90;;;25.58;41.25;95909.66;5001819;28;19918;-43
2022/09/11 09:52:23;;;;;;;;;;;33.20;42.90;;;25.40;41.22;95906.50;4961488;28;20359;-45
2022/09/11 09:55:03;;;;;;;;;;;33.20;42.60;;;25.03;40.71;95900.47;4992570;28;19931;-44
2022/09/11 09:57:36;;;;;;;;;;;33.00;42.60;;;24.79;42.71;95899.47;4973487;28;19920;-46
2022/09/11 10:00:08;;;;;;;;;;;32.60;42.50;;;24.63;41.50;95893.16;5001196;28;19914;-44
2022/09/11 10:03:21;;;;;;;;;;;32.30;42.50;;;24.58;40.37;95896.94;5006329;28;19910;-46
2022/09/11 10:05:52;;;;;;;;;;;32.30;42.30;;;24.23;41.41;95902.13;4923599;28;20368;-45
2022/09/11 10:08:36;;;;;;;;;;;32.00;42.30;;;24.10;43.14;95901.38;4987254;28;20007;-44
2022/09/11 10:11:12;;;;;;;;;;;31.70;42.30;;;24.04;44.26;95899.22;5009906;28;19909;-44
2022/09/11 10:13:51;;;;;;;;;;;31.60;42.20;;;24.31;41.65;95894.97;5001063;28;19915;-47
2022/09/11 10:16:26;;;;;;;;;;;31.90;41.70;;;24.70;40.71;95887.94;4975352;28;19984;-44
2022/09/11 10:18:54;;;;;;;;;;;32.60;41.50;;;25.29;42.29;95894.50;5005288;28;20470;-45
2022/09/11 10:21:38;;;;;;;;;;;33.10;41.20;;;25.79;43.64;95890.25;4976757;28;20395;-42
2022/09/11 10:24:22;;;;;;;;;;;33.80;41.00;;;26.61;42.02;95894.81;4987623;28;20363;-50
2022/09/11 10:26:52;;;;;;;;;;;34.60;40.80;;;27.08;38.62;95893.72;4991841;28;19946;-44
2022/09/11 10:29:50;;;;;;;;;;;35.30;40.30;;;27.06;35.81;95882.34;5010089;28;20291;-44
2022/09/11 10:32:17;;;;;;;;;;;36.00;39.60;;;27.17;36.63;95896.22;5009194;28;19909;-53
2022/09/11 10:34:43;;;;;;;;;;;36.40;39.00;;;27.22;36.10;95891.25;4976765;28;19931;-43
2022/09/11 10:37:14;;;;;;;;;;;36.50;38.80;;;27.61;35.79;95890.31;4988308;28;19913;-42
2022/09/11 10:39:45;;;;;;;;;;;36.80;38.40;;;27.89;34.24;95889.97;5007238;28;19978;-44
2022/09/11 10:42:30;;;;;;;;;;;37.20;38.00;;;28.49;34.26;95889.25;4982771;28;19909;-43
2022/09/11 10:45:16;;;;;;;;;;;37.50;37.60;;;28.99;35.39;95893.34;4993204;28;20382;-46
2022/09/11 10:47:44;;;;;;;;;;;37.70;37.50;;;29.07;34.68;95887.94;5010966;28;20465;-45
2022/09/11 10:50:16;;;;;;;;;;;38.00;37.20;;;28.94;35.13;95881.91;5008869;28;19916;-43
2022/09/11 10:53:11;;;;;;;;;;;38.00;36.90;;;28.40;35.12;95884.06;5010464;28;20247;-46
2022/09/11 10:55:56;;;;;;;;;;;37.80;36.90;;;27.58;37.23;95882.88;4984212;28;19917;-43
2022/09/11 10:58:34;;;;;;;;;;;37.40;36.80;;;27.43;36.83;95885.34;4983219;28;20372;-43
2022/09/11 11:01:00;;;;;;;;;;;36.80;36.80;;;27.58;37.18;95889.13;4980487;28;19920;-46
2022/09/11 11:03:28;;;;;;;;;;;36.70;36.80;;;27.55;37.56;95884.38;5009264;28;19909;-44
2022/09/11 11:06:47;;;;;;;;;;;36.30;36.90;;;27.21;37.42;95888.91;5012137;28;20323;-44
2022/09/11 11:09:54;;;;;;;;;;;35.70;37.00;;;26.72;37.49;95887.59;4999397;28;20435;-44
2022/09/11 11:12:37;;;;;;;;;;;35.00;37.00;;;26.10;39.67;95891.34;4918552;28;19990;-47
2022/09/11 11:15:50;;;;;;;;;;;34.30;37.00;;;25.93;40.18;95881.63;4981621;28;19909;-44
2022/09/11 11:18:45;;;;;;;;;;;33.50;37.30;;;25.69;39.85;95885.34;4988807;28;20013;-50
2022/09/11 11:21:43;;;;;;;;;;;32.90;37.50;;;25.08;40.42;95875.69;4978363;28;20292;-42
2022/09/11 11:24:36;;;;;;;;;;;32.40;37.60;;;24.79;42.58;95876.84;4972012;28;19959;-43
2022/09/11 11:27:35;;;;;;;;;;;32.00;37.80;;;24.91;41.34;95866.72;4969025;28;19967;-45
2022/09/11 11:30:10;;;;;;;;;;;31.90;38.00;;;24.45;43.08;95873.63;4945659;28;19961;-44
2022/09/11 11:33:25;;;;;;;;;;;31.60;38.30;;;24.30;41.72;95864.22;4985261;28;20558;-43
2022/09/11 11:36:27;;;;;;;;;;;31.20;38.40;;;24.05;43.46;95860.81;4975957;28;19910;-43
2022/09/11 11:38:59;;;;;;;;;;;30.80;38.50;;;24.17;44.19;95863.47;4984379;28;19921;-44
2022/09/11 11:41:43;;;;;;;;;;;30.70;38.70;;;23.77;42.49;95863.47;4996919;28;19925;-43
2022/09/11 11:44:38;;;;;;;;;;;30.50;38.80;;;23.67;42.82;95872.06;4967642;28;20272;-43
2022/09/11 11:47:09;;;;;;;;;;;30.10;39.60;;;23.83;43.51;95866.75;5011253;28;19916;-44
2022/09/11 11:50:36;;;;;;;;;;;30.00;39.10;;;23.73;42.88;95868.81;4995032;28;20709;-43
2022/09/11 11:53:19;;;;;;;;;;;29.90;39.20;;;23.68;42.99;95862.75;4991609;28;19909;-43
2022/09/11 11:56:08;;;;;;;;;;;29.90;39.20;;;23.59;43.69;95868.31;4999879;28;19975;-50
2022/09/11 11:58:50;;;;;;;;;;;29.80;39.30;;;23.56;44.84;95860.84;4997810;28;19959;-46